Terminal Aerodrome Forecast
Issued by NWS

Home | Current Version | Previous Version | Text Only | Print | Product List | Glossary On
Versions: 1 2 3 4 5 6 7 8 9 10 11 12 13
000
FTAK31 PAJN 221100 RRA
TAFAYA
TAF
PAYA 221142Z 2212/2312 10007KT P6SM -SHRA SCT025 OVC035
      TEMPO 2212/2216 5SM SHRA BR SCT008 BKN020 OVC030
     FM221800 14005KT P6SM -SHRA SCT025 OVC050
     FM230300 09005KT P6SM VCSH BKN050 OVC080
      AMD LTD TO CLD VIS AND WIND 2301/2310=

USA.gov is the U.S. government's official web portal to all federal, state and local government web resources and services.